Time;durP1;ratioP1;P1;durP2;ratioP2;P2;SDS_P1;SDS_P2;PMS_P1;PMS_P2;Temp;Humidity;BMP_temperature;BMP_pressure;BME280_temperature;BME280_humidity;BME280_pressure;Samples;Min_cycle;Max_cycle;Signal;HPM_P1;HPM_P2
2021/06/27 00:00:23;;;;;;;23.38;19.15;;;;;;;19.92;60.30;101630.78;5074092;28;20082;-50
2021/06/27 00:03:16;;;;;;;20.85;17.95;;;;;;;19.89;60.45;101634.19;5072579;28;20051;-50
2021/06/27 00:05:44;;;;;;;22.40;19.58;;;;;;;19.84;60.83;101637.03;5072343;28;20048;-47
2021/06/27 00:08:12;;;;;;;23.85;19.10;;;;;;;19.76;61.01;101643.31;5073438;28;20040;-49
2021/06/27 00:10:42;;;;;;;25.48;20.27;;;;;;;19.68;61.40;101633.00;5073441;28;20048;-47
2021/06/27 00:13:10;;;;;;;25.98;19.08;;;;;;;19.64;61.61;101643.00;5073592;28;20112;-48
2021/06/27 00:15:47;;;;;;;26.85;21.33;;;;;;;19.64;61.61;101638.28;5087898;28;20044;-49
2021/06/27 00:18:18;;;;;;;21.70;19.08;;;;;;;19.64;61.77;101641.06;5073595;28;20044;-49
2021/06/27 00:20:48;;;;;;;24.88;19.10;;;;;;;19.66;61.83;101635.22;5073489;28;20445;-53
2021/06/27 00:23:17;;;;;;;25.10;19.40;;;;;;;19.67;61.72;101636.84;5072586;28;20072;-51
2021/06/27 00:25:45;;;;;;;24.80;18.70;;;;;;;19.68;61.67;101633.00;5073341;28;20067;-53
2021/06/27 00:28:14;;;;;;;22.85;18.63;;;;;;;19.70;61.78;101630.72;5073976;28;20049;-53
2021/06/27 00:30:45;;;;;;;23.23;19.65;;;;;;;19.65;61.97;101628.03;5073102;28;20044;-49
2021/06/27 00:33:14;;;;;;;27.38;19.33;;;;;;;19.63;62.09;101633.09;5073857;28;20049;-47
2021/06/27 00:35:41;;;;;;;25.58;19.58;;;;;;;19.62;62.35;101634.19;5072882;28;20153;-48
2021/06/27 00:38:09;;;;;;;25.33;19.95;;;;;;;19.51;62.60;101628.91;5073375;28;20474;-49
2021/06/27 00:40:37;;;;;;;20.10;16.08;;;;;;;19.45;62.92;101624.59;5072771;28;20083;-50
2021/06/27 00:43:06;;;;;;;20.90;18.20;;;;;;;19.48;63.03;101628.69;5073144;28;20044;-53
2021/06/27 00:45:35;;;;;;;21.77;17.42;;;;;;;19.46;62.92;101617.97;5073034;28;20434;-51
2021/06/27 00:48:04;;;;;;;24.00;17.55;;;;;;;19.49;63.02;101617.31;5073067;28;20128;-51
2021/06/27 00:50:37;;;;;;;20.58;17.27;;;;;;;19.52;63.07;101618.66;5072279;28;20076;-51
2021/06/27 00:53:07;;;;;;;22.30;18.02;;;;;;;19.51;63.17;101620.59;5072742;28;20124;-50
2021/06/27 00:55:35;;;;;;;19.67;16.67;;;;;;;19.54;62.94;101617.22;5072273;28;20182;-51
2021/06/27 00:58:04;;;;;;;23.02;18.58;;;;;;;19.50;63.22;101618.13;5072877;28;20116;-51
2021/06/27 01:00:35;;;;;;;21.88;18.58;;;;;;;19.48;63.38;101614.84;5072534;28;20109;-51
2021/06/27 01:03:03;;;;;;;21.92;18.38;;;;;;;19.41;63.79;101612.53;5072395;28;20040;-52
2021/06/27 01:05:37;;;;;;;22.98;19.00;;;;;;;19.42;63.78;101614.16;5072466;28;20051;-49
2021/06/27 01:08:05;;;;;;;22.33;18.02;;;;;;;19.47;63.83;101625.09;5072428;28;20047;-49
2021/06/27 01:10:33;;;;;;;22.52;18.25;;;;;;;19.47;63.88;101613.25;5071030;28;20068;-50
2021/06/27 01:13:02;;;;;;;26.52;18.65;;;;;;;19.47;63.81;101611.28;5072282;28;20063;-51
2021/06/27 01:15:30;;;;;;;29.45;20.23;;;;;;;19.46;64.03;101620.72;5086329;28;20421;-50
2021/06/27 01:17:58;;;;;;;20.83;17.48;;;;;;;19.41;64.16;101620.00;5072611;28;20049;-50
2021/06/27 01:20:29;;;;;;;23.27;18.42;;;;;;;19.36;64.33;101616.22;5072275;28;20036;-49
2021/06/27 01:22:58;;;;;;;24.55;19.27;;;;;;;19.34;64.53;101614.91;5072157;28;20098;-50
2021/06/27 01:25:32;;;;;;;25.80;17.98;;;;;;;19.34;64.58;101617.66;5072227;28;20037;-49
2021/06/27 01:28:01;;;;;;;25.83;19.30;;;;;;;19.31;64.67;101607.19;5072281;28;20044;-49
2021/06/27 01:30:29;;;;;;;23.20;18.42;;;;;;;19.24;64.98;101604.03;5072200;28;20208;-49
2021/06/27 01:32:59;;;;;;;22.38;18.50;;;;;;;19.17;65.21;101604.47;5072164;28;20044;-49
2021/06/27 01:35:27;;;;;;;20.30;16.95;;;;;;;19.12;65.52;101605.38;5072628;28;20041;-50
2021/06/27 01:37:57;;;;;;;23.95;18.73;;;;;;;19.14;65.49;101605.88;5071477;28;20453;-49
2021/06/27 01:40:27;;;;;;;22.48;17.83;;;;;;;19.18;65.40;101599.75;5071287;28;20044;-50
2021/06/27 01:43:13;;;;;;;26.83;18.15;;;;;;;19.18;65.42;101602.50;5071823;28;20032;-50
2021/06/27 01:45:45;;;;;;;21.35;17.00;;;;;;;19.14;65.33;101597.59;5072126;28;20059;-51
2021/06/27 01:48:13;;;;;;;20.58;16.98;;;;;;;19.15;65.71;101603.94;5072324;28;20067;-48
2021/06/27 01:50:43;;;;;;;19.52;15.07;;;;;;;19.14;65.54;101605.06;5072069;28;20050;-46
2021/06/27 01:53:14;;;;;;;18.85;15.48;;;;;;;19.18;65.43;101597.00;5070356;28;20044;-51
2021/06/27 01:55:42;;;;;;;19.65;16.27;;;;;;;19.20;65.33;101600.28;5072255;28;20094;-49
2021/06/27 01:58:11;;;;;;;23.05;17.23;;;;;;;19.19;65.43;101604.13;5072009;28;20540;-49
2021/06/27 02:00:39;;;;;;;20.98;16.65;;;;;;;19.15;65.47;101604.75;5073039;28;20075;-49
2021/06/27 02:03:07;;;;;;;22.90;16.88;;;;;;;19.20;65.37;101601.09;5076171;28;20125;-50
2021/06/27 02:05:34;;;;;;;21.58;17.42;;;;;;;19.23;65.46;101594.13;5076388;28;20050;-50
2021/06/27 02:08:02;;;;;;;19.38;16.38;;;;;;;19.26;65.14;101602.59;5075522;28;20053;-51
2021/06/27 02:10:30;;;;;;;20.73;15.82;;;;;;;19.25;65.27;101597.41;5075899;28;20406;-49
2021/06/27 02:12:59;;;;;;;21.48;16.95;;;;;;;19.21;65.42;101599.13;5075981;28;20048;-50
2021/06/27 02:15:28;;;;;;;19.70;15.68;;;;;;;19.21;65.49;101604.66;5089940;28;20029;-50
2021/06/27 02:18:14;;;;;;;21.95;16.05;;;;;;;19.24;65.29;101602.13;5075853;28;20625;-53
2021/06/27 02:20:43;;;;;;;;;;;;;;;19.24;65.28;101601.28;5075724;28;20513;-51
2021/06/27 02:23:11;;;;;;;27.27;16.63;;;;;;;19.20;65.43;101600.28;5075668;28;20362;-50
2021/06/27 02:25:38;;;;;;;23.88;16.35;;;;;;;19.23;65.42;101605.16;5075654;28;20048;-49
2021/06/27 02:28:06;;;;;;;21.92;15.60;;;;;;;19.30;65.07;101600.06;5075859;28;20060;-51
2021/06/27 02:30:33;;;;;;;19.52;14.40;;;;;;;19.29;65.20;101599.25;5075646;28;20118;-54
2021/06/27 02:33:03;;;;;;;19.95;15.68;;;;;;;19.31;65.10;101604.44;5075678;28;20059;-51
2021/06/27 02:35:31;;;;;;;20.70;17.67;;;;;;;19.29;65.52;101598.41;5087017;28;20036;-54
2021/06/27 02:37:58;;;;;;;22.25;18.08;;;;;;;19.24;65.35;101602.13;5092219;28;20119;-50
2021/06/27 02:40:26;;;;;;;23.20;18.20;;;;;;;19.22;65.58;101603.50;5089573;28;20414;-50
2021/06/27 02:42:54;;;;;;;22.48;15.68;;;;;;;19.19;65.52;101604.13;5080418;28;20036;-50
2021/06/27 02:45:22;;;;;;;20.90;17.20;;;;;;;19.20;65.62;101601.09;5083964;28;20122;-48
2021/06/27 02:47:49;;;;;;;20.90;16.80;;;;;;;19.16;65.67;101591.75;5074053;28;20040;-47
2021/06/27 02:50:17;;;;;;;20.55;15.07;;;;;;;19.09;65.84;101592.16;5074982;28;20049;-47
2021/06/27 02:52:45;;;;;;;21.42;17.23;;;;;;;19.06;66.09;101590.03;5089320;28;20064;-47
2021/06/27 02:55:14;;;;;;;18.85;15.68;;;;;;;19.08;65.78;101582.25;5075426;28;20062;-49
2021/06/27 02:57:42;;;;;;;19.67;16.10;;;;;;;19.04;66.35;101577.66;5074948;28;20056;-49
2021/06/27 03:00:16;;;;;;;19.30;15.75;;;;;;;19.03;66.10;101568.53;5074859;28;20448;-51
2021/06/27 03:02:43;;;;;;;23.15;17.23;;;;;;;19.04;65.89;101570.16;5074875;28;20044;-49
2021/06/27 03:05:13;;;;;;;21.08;15.95;;;;;;;19.03;66.09;101568.53;5094678;28;20040;-50
2021/06/27 03:07:41;;;;;;;17.38;14.20;;;;;;;19.01;66.24;101559.75;5082377;28;20044;-50
2021/06/27 03:10:11;;;;;;;20.67;15.68;;;;;;;18.99;66.29;101563.94;5088727;28;20067;-48
2021/06/27 03:12:43;;;;;;;20.15;15.98;;;;;;;18.96;66.31;101564.56;5074317;28;20429;-52
2021/06/27 03:15:14;;;;;;;20.48;15.93;;;;;;;18.94;66.41;101565.66;5074443;28;20119;-50
2021/06/27 03:17:42;;;;;;;19.88;14.77;;;;;;;18.96;66.27;101559.84;5074973;28;20040;-52
2021/06/27 03:20:12;;;;;;;20.30;16.75;;;;;;;18.88;66.44;101568.84;5073976;28;20048;-49
2021/06/27 03:22:40;;;;;;;22.75;17.35;;;;;;;18.86;66.67;101563.63;5083310;28;20202;-51
2021/06/27 03:25:09;;;;;;;18.40;14.75;;;;;;;18.81;66.84;101569.25;5078883;28;20036;-49
2021/06/27 03:27:37;;;;;;;20.17;15.88;;;;;;;18.71;67.21;101566.63;5074547;28;20510;-49
2021/06/27 03:30:07;;;;;;;19.35;15.50;;;;;;;18.68;67.38;101567.25;5074114;28;20105;-50
2021/06/27 03:32:36;;;;;;;18.40;14.45;;;;;;;18.70;67.36;101565.00;5074465;28;20068;-49
2021/06/27 03:35:05;;;;;;;21.83;17.40;;;;;;;18.73;67.21;101564.41;5074231;28;20070;-49
2021/06/27 03:37:33;;;;;;;20.38;15.23;;;;;;;18.76;67.00;101562.97;5074333;28;20052;-50
2021/06/27 03:40:02;;;;;;;23.17;16.05;;;;;;;18.73;67.12;101567.97;5074549;28;20494;-47
2021/06/27 03:42:30;;;;;;;20.75;15.98;;;;;;;18.76;66.91;101566.59;5077840;28;20032;-47
2021/06/27 03:44:57;;;;;;;17.80;14.73;;;;;;;18.78;66.86;101558.81;5083926;28;20171;-46
2021/06/27 03:47:26;;;;;;;20.60;16.10;;;;;;;18.81;66.76;101565.66;5073850;28;20457;-47
2021/06/27 03:49:53;;;;;;;17.75;14.30;;;;;;;18.82;66.87;101570.06;5073776;28;20036;-46
2021/06/27 03:52:21;;;;;;;19.90;15.45;;;;;;;18.84;66.65;101573.34;5073841;28;20090;-47
2021/06/27 03:54:49;;;;;;;21.73;15.27;;;;;;;18.80;66.74;101575.06;5074341;28;20063;-47
2021/06/27 03:57:16;;;;;;;21.00;15.95;;;;;;;18.74;66.94;101577.09;5072485;28;20053;-48
2021/06/27 03:59:44;;;;;;;19.67;15.55;;;;;;;18.72;67.12;101577.38;5073976;28;20045;-52
2021/06/27 04:02:11;;;;;;;17.13;13.13;;;;;;;18.73;67.14;101576.25;5074019;28;20577;-51
2021/06/27 04:04:39;;;;;;;22.00;16.88;;;;;;;18.71;67.24;101561.97;5073301;28;20037;-46
2021/06/27 04:07:07;;;;;;;20.15;16.02;;;;;;;18.70;67.25;101557.53;5073714;28;20048;-48
2021/06/27 04:09:34;;;;;;;19.95;14.68;;;;;;;18.68;67.52;101557.03;5073834;28;20185;-49
2021/06/27 04:12:02;;;;;;;19.73;14.63;;;;;;;18.66;67.61;101548.22;5072785;28;20052;-48
2021/06/27 04:14:30;;;;;;;19.98;14.23;;;;;;;18.68;67.44;101540.47;5073446;28;20040;-51
2021/06/27 04:16:57;;;;;;;21.85;17.50;;;;;;;18.68;67.29;101550.69;5073370;28;20094;-50
2021/06/27 04:19:25;;;;;;;22.20;16.45;;;;;;;18.70;67.44;101542.94;5073427;28;20494;-51
2021/06/27 04:21:53;;;;;;;18.42;15.52;;;;;;;18.70;67.47;101543.75;5073690;28;20052;-49
2021/06/27 04:24:21;;;;;;;21.20;17.10;;;;;;;18.71;67.69;101541.78;5072302;28;20033;-51
2021/06/27 04:26:49;;;;;;;22.48;15.95;;;;;;;18.73;67.59;101531.25;5073541;28;20063;-51
2021/06/27 04:29:16;;;;;;;21.67;14.55;;;;;;;18.75;67.51;101540.06;5073245;28;20057;-52
2021/06/27 04:31:44;;;;;;;22.55;16.67;;;;;;;18.78;67.43;101533.16;5072957;28;20037;-51
2021/06/27 04:34:12;;;;;;;19.77;16.48;;;;;;;18.78;67.30;101530.38;5072166;28;20071;-50
2021/06/27 04:36:40;;;;;;;24.33;19.25;;;;;;;18.77;67.58;101531.53;5072960;28;20071;-50
2021/06/27 04:39:08;;;;;;;25.35;18.13;;;;;;;18.73;67.78;101537.59;5073065;28;20045;-49
2021/06/27 04:41:36;;;;;;;21.50;18.02;;;;;;;18.77;67.59;101531.53;5073105;28;20064;-51
2021/06/27 04:44:04;;;;;;;19.25;15.48;;;;;;;18.78;67.66;101533.16;5087218;28;20045;-47
2021/06/27 04:46:32;;;;;;;19.70;15.32;;;;;;;18.78;67.56;101535.91;5072635;28;20080;-48
2021/06/27 04:49:00;;;;;;;22.58;18.00;;;;;;;18.78;67.58;101517.38;5072720;28;20041;-48
2021/06/27 04:51:27;;;;;;;23.92;18.48;;;;;;;18.80;67.62;101523.44;5073042;28;20072;-50
2021/06/27 04:53:55;;;;;;;24.33;17.13;;;;;;;18.78;67.87;101517.38;5071530;28;20444;-48
2021/06/27 04:56:22;;;;;;;24.25;18.90;;;;;;;18.78;67.70;101506.34;5073026;28;20399;-51
2021/06/27 04:58:50;;;;;;;22.38;17.88;;;;;;;18.76;68.10;101505.00;5072991;28;20109;-50
2021/06/27 05:01:18;;;;;;;21.80;17.67;;;;;;;18.73;68.12;101504.47;5071907;28;20086;-49
2021/06/27 05:03:46;;;;;;;22.48;18.92;;;;;;;18.73;68.21;101504.47;5072921;28;20041;-51
2021/06/27 05:06:13;;;;;;;17.65;14.88;;;;;;;18.73;68.34;101507.22;5087047;28;20064;-49
2021/06/27 05:08:41;;;;;;;18.65;15.20;;;;;;;18.76;68.37;101502.22;5072389;28;20048;-49
2021/06/27 05:11:09;;;;;;;22.15;18.20;;;;;;;18.82;68.28;101507.38;5072605;28;20064;-50
2021/06/27 05:13:37;;;;;;;25.10;19.60;;;;;;;18.81;68.22;101502.16;5072529;28;20037;-49
2021/06/27 05:16:05;;;;;;;22.17;17.13;;;;;;;18.81;68.10;101503.00;5072008;28;20040;-51
2021/06/27 05:18:33;;;;;;;21.30;16.33;;;;;;;18.81;68.15;101496.63;5072392;28;20209;-50
2021/06/27 05:21:00;;;;;;;19.92;15.65;;;;;;;18.79;68.34;101496.16;5072557;28;20036;-49
2021/06/27 05:23:28;;;;;;;22.20;18.27;;;;;;;18.84;68.05;101498.81;5071860;28;20048;-50
2021/06/27 05:25:55;;;;;;;17.02;13.52;;;;;;;18.90;67.96;101503.06;5072644;28;20107;-50
2021/06/27 05:28:23;;;;;;;18.60;13.68;;;;;;;18.91;67.94;101496.44;5072081;28;20574;-47
2021/06/27 05:30:51;;;;;;;18.80;16.00;;;;;;;18.94;68.01;101509.63;5072024;28;20519;-51
2021/06/27 05:33:18;;;;;;;23.13;16.88;;;;;;;18.97;67.74;101511.75;5071016;28;20146;-50
2021/06/27 05:35:46;;;;;;;21.55;16.27;;;;;;;18.98;67.86;101515.34;5071785;28;20071;-50
2021/06/27 05:38:14;;;;;;;20.48;16.15;;;;;;;18.99;67.75;101512.28;5072259;28;20072;-49
2021/06/27 05:40:41;;;;;;;23.73;16.38;;;;;;;19.00;67.94;101513.94;5072605;28;20068;-48
2021/06/27 05:43:09;;;;;;;19.88;15.65;;;;;;;19.02;67.53;101500.59;5081151;28;20098;-51
2021/06/27 05:45:37;;;;;;;15.82;13.45;;;;;;;19.04;67.53;101503.88;5076188;28;20049;-49
2021/06/27 05:48:06;;;;;;;22.95;18.88;;;;;;;19.04;67.77;101506.63;5072289;28;20127;-50
2021/06/27 05:50:34;;;;;;;23.50;18.75;;;;;;;19.02;68.09;101511.66;5071697;28;20044;-50
2021/06/27 05:53:03;;;;;;;21.98;17.30;;;;;;;19.04;68.05;101503.88;5072026;28;20053;-49
2021/06/27 05:55:30;;;;;;;23.73;17.88;;;;;;;19.04;67.90;101511.34;5071807;28;20044;-51
2021/06/27 05:57:58;;;;;;;22.80;14.57;;;;;;;19.05;67.73;101510.22;5071817;28;20033;-50
2021/06/27 06:00:25;;;;;;;24.88;18.13;;;;;;;19.06;67.81;101507.16;5071548;28;20520;-52
2021/06/27 06:02:53;;;;;;;24.05;17.45;;;;;;;19.06;67.90;101515.44;5072578;28;20102;-53
2021/06/27 06:05:21;;;;;;;24.80;17.15;;;;;;;19.10;67.38;101513.72;5072524;28;20043;-51
2021/06/27 06:07:49;;;;;;;17.92;13.05;;;;;;;19.13;67.18;101517.78;5072564;28;20040;-51
2021/06/27 06:10:17;;;;;;;23.58;17.17;;;;;;;19.21;67.16;101521.78;5054516;28;20045;-52
2021/06/27 06:12:44;;;;;;;23.95;17.45;;;;;;;19.23;67.24;101522.28;5072178;28;20433;-53
2021/06/27 06:15:13;;;;;;;20.92;14.10;;;;;;;19.26;67.08;101511.41;5072053;28;20032;-52
2021/06/27 06:17:41;;;;;;;22.58;16.73;;;;;;;19.30;67.09;101519.91;5071651;28;20040;-50
2021/06/27 06:20:09;;;;;;;21.67;17.25;;;;;;;19.34;66.95;101515.41;5092415;28;20063;-51
2021/06/27 06:22:36;;;;;;;24.48;16.33;;;;;;;19.34;66.98;101512.66;5108812;28;20040;-52
2021/06/27 06:25:04;;;;;;;24.33;16.30;;;;;;;19.39;67.21;101520.00;5105764;28;20037;-48
2021/06/27 06:27:32;;;;;;;21.17;15.80;;;;;;;19.43;67.09;101515.47;5108565;28;20066;-52
2021/06/27 06:30:00;;;;;;;21.02;16.98;;;;;;;19.47;66.92;101514.53;5106858;28;20055;-50
2021/06/27 06:32:29;;;;;;;20.30;14.88;;;;;;;19.49;66.65;101508.72;5108785;28;20494;-50
2021/06/27 06:34:57;;;;;;;26.13;17.17;;;;;;;19.49;66.51;101506.75;5088295;28;20076;-52
2021/06/27 06:37:24;;;;;;;24.88;16.58;;;;;;;19.51;66.32;101515.56;5077862;28;20503;-53
2021/06/27 06:39:52;;;;;;;23.50;16.17;;;;;;;19.53;66.32;101510.56;5072802;28;20041;-49
2021/06/27 06:42:20;;;;;;;19.95;14.55;;;;;;;19.52;66.42;101508.91;5078105;28;20054;-50
2021/06/27 06:44:47;;;;;;;21.33;17.00;;;;;;;19.55;67.00;101513.81;5091142;28;20040;-54
2021/06/27 06:47:15;;;;;;;20.55;16.00;;;;;;;19.54;66.86;101509.41;5091280;28;20048;-50
2021/06/27 06:49:43;;;;;;;20.75;15.70;;;;;;;19.57;66.75;101511.53;5099631;28;20094;-52
2021/06/27 06:52:10;;;;;;;19.38;15.02;;;;;;;19.62;66.76;101512.56;5092232;28;20029;-51
2021/06/27 06:54:38;;;;;;;22.42;14.70;;;;;;;19.62;66.75;101507.84;5089747;28;20044;-50
2021/06/27 06:57:06;;;;;;;16.80;12.70;;;;;;;19.67;66.32;101501.38;5068940;28;20136;-49
2021/06/27 06:59:34;;;;;;;23.00;17.17;;;;;;;19.69;66.33;101507.44;5088140;28;20070;-50
2021/06/27 07:02:01;;;;;;;18.00;14.07;;;;;;;19.71;66.73;101510.72;5091658;28;20051;-50
2021/06/27 07:04:29;;;;;;;23.02;16.23;;;;;;;19.73;66.89;101520.34;5090656;28;20044;-49
2021/06/27 07:06:57;;;;;;;20.58;15.13;;;;;;;19.77;66.84;101515.81;5084237;28;20068;-50
2021/06/27 07:09:24;;;;;;;24.55;16.83;;;;;;;19.79;67.12;101513.56;5093640;28;20383;-49
2021/06/27 07:11:52;;;;;;;25.85;15.80;;;;;;;19.81;66.39;101520.72;5084107;28;20052;-51
2021/06/27 07:14:20;;;;;;;20.92;15.90;;;;;;;19.82;66.74;101516.81;5093350;28;20035;-50
2021/06/27 07:16:48;;;;;;;20.98;14.68;;;;;;;19.85;66.63;101517.00;5084170;28;20045;-50
2021/06/27 07:19:15;;;;;;;21.45;14.68;;;;;;;19.88;66.52;101515.56;5091111;28;20077;-52
2021/06/27 07:21:45;;;;;;;23.13;17.35;;;;;;;19.93;66.76;101521.78;5083788;28;20044;-50
2021/06/27 07:24:12;;;;;;;21.30;15.45;;;;;;;19.97;66.72;101520.03;5074129;28;20156;-49
2021/06/27 07:26:40;;;;;;;21.08;15.80;;;;;;;20.00;66.57;101524.09;5088643;28;20490;-48
2021/06/27 07:29:08;;;;;;;19.95;14.23;;;;;;;20.04;66.15;101524.31;5085039;28;20052;-48
2021/06/27 07:31:36;;;;;;;21.08;14.70;;;;;;;20.09;66.48;101521.41;5091490;28;20520;-50
2021/06/27 07:34:04;;;;;;;23.48;18.55;;;;;;;20.17;66.97;101517.88;5083878;28;20049;-49
2021/06/27 07:36:32;;;;;;;21.42;17.63;;;;;;;20.27;66.24;101509.31;5093509;28;20078;-50
2021/06/27 07:38:59;;;;;;;21.73;17.10;;;;;;;20.30;66.27;101511.47;5084014;28;20106;-49
2021/06/27 07:41:27;;;;;;;18.35;13.45;;;;;;;20.33;65.75;101521.88;5091463;28;20517;-49
2021/06/27 07:43:55;;;;;;;20.40;14.30;;;;;;;20.35;65.91;101508.56;5088494;28;20070;-51
2021/06/27 07:46:23;;;;;;;23.70;17.50;;;;;;;20.37;65.65;101511.81;5073600;28;20090;-49
2021/06/27 07:48:50;;;;;;;20.17;15.35;;;;;;;20.39;65.51;101506.75;5073870;28;20466;-49
2021/06/27 07:51:18;;;;;;;19.45;16.48;;;;;;;20.45;65.64;101512.19;5080994;28;20041;-49
2021/06/27 07:53:46;;;;;;;20.30;16.92;;;;;;;20.48;65.84;101506.81;5092932;28;20068;-49
2021/06/27 07:56:13;;;;;;;21.13;13.30;;;;;;;20.54;65.50;101501.94;5092469;28;20066;-49
2021/06/27 07:58:53;;;;;;;19.90;15.98;;;;;;;20.57;65.23;101504.94;5093208;28;20044;-51
2021/06/27 08:01:24;;;;;;;18.52;13.13;;;;;;;20.59;64.99;101501.84;5092369;28;20086;-54
2021/06/27 08:03:52;;;;;;;16.95;12.35;;;;;;;20.62;65.30;101504.78;5092340;28;20032;-49
2021/06/27 08:06:20;;;;;;;25.13;16.15;;;;;;;20.70;65.62;101507.91;5088740;28;20094;-49
2021/06/27 08:08:47;;;;;;;22.25;14.52;;;;;;;20.74;64.48;101509.72;5087471;28;20391;-50
2021/06/27 08:11:15;;;;;;;18.20;14.88;;;;;;;20.78;63.55;101515.41;5085010;28;20091;-53
2021/06/27 08:13:43;;;;;;;22.35;14.77;;;;;;;20.80;63.73;101513.16;5070365;28;20124;-51
2021/06/27 08:16:10;;;;;;;19.80;15.10;;;;;;;20.83;64.08;101507.81;5083963;28;20071;-50
2021/06/27 08:18:38;;;;;;;18.73;13.10;;;;;;;20.92;64.06;101509.78;5088811;28;20044;-51
2021/06/27 08:21:06;;;;;;;19.88;14.45;;;;;;;21.00;63.43;101511.78;5083539;28;20458;-49
2021/06/27 08:23:33;;;;;;;20.23;16.27;;;;;;;21.05;63.18;101514.38;5087792;28;20101;-53
2021/06/27 08:26:01;;;;;;;19.02;13.52;;;;;;;21.06;63.31;101516.00;5085154;28;20047;-50
2021/06/27 08:28:29;;;;;;;18.42;14.02;;;;;;;21.09;63.42;101509.81;5087102;28;20146;-53
2021/06/27 08:30:56;;;;;;;22.45;14.80;;;;;;;21.16;63.12;101515.69;5087041;28;20048;-50
2021/06/27 08:33:24;;;;;;;21.08;14.35;;;;;;;21.18;62.51;101518.97;5085112;28;20047;-50
2021/06/27 08:35:52;;;;;;;18.23;14.40;;;;;;;21.21;63.30;101521.13;5088362;28;20604;-47
2021/06/27 08:38:20;;;;;;;20.45;15.63;;;;;;;21.30;63.35;101523.06;5087662;28;20041;-51
2021/06/27 08:40:47;;;;;;;18.02;12.88;;;;;;;21.33;62.42;101514.09;5087890;28;20059;-54
2021/06/27 08:43:15;;;;;;;20.77;14.95;;;;;;;21.35;62.80;101512.63;5086626;28;20052;-51
2021/06/27 08:45:50;;;;;;;19.90;14.93;;;;;;;21.39;62.94;101508.09;5092563;28;20521;-51
2021/06/27 08:48:22;;;;;;;18.67;14.35;;;;;;;21.45;62.90;101512.38;5093313;28;20081;-51
2021/06/27 08:50:51;;;;;;;21.55;14.52;;;;;;;21.49;62.83;101507.78;5071786;28;20161;-54
2021/06/27 08:53:20;;;;;;;18.55;12.98;;;;;;;21.50;62.38;101505.81;5071980;28;20059;-52
2021/06/27 08:56:04;;;;;;;17.13;13.63;;;;;;;21.53;61.66;101498.81;5072493;28;20064;-51
2021/06/27 08:58:33;;;;;;;20.77;14.55;;;;;;;21.50;61.89;101494.72;5072827;28;20048;-54
2021/06/27 09:01:03;;;;;;;19.75;16.15;;;;;;;21.54;63.19;101494.91;5075790;28;20053;-52
2021/06/27 09:03:31;;;;;;;21.58;16.48;;;;;;;21.58;62.95;101493.94;5073755;28;20036;-49
2021/06/27 09:05:59;;;;;;;19.80;14.95;;;;;;;21.60;62.84;101485.25;5071856;28;20407;-50
2021/06/27 09:08:27;;;;;;;18.80;14.52;;;;;;;21.63;62.59;101485.44;5071602;28;20090;-50
2021/06/27 09:10:55;;;;;;;19.13;15.70;;;;;;;21.65;62.86;101491.47;5071613;28;20044;-50
2021/06/27 09:13:40;;;;;;;22.80;13.82;;;;;;;21.66;63.16;101484.78;5071958;28;20044;-51
2021/06/27 09:16:20;;;;;;;18.52;15.70;;;;;;;21.73;62.62;101483.47;5071814;28;20155;-50
2021/06/27 09:18:48;;;;;;;17.13;13.48;;;;;;;21.76;63.03;101485.59;5072424;28;20033;-51
2021/06/27 09:21:17;;;;;;;19.38;15.15;;;;;;;21.79;62.81;101488.53;5066025;28;20055;-49
2021/06/27 09:23:47;;;;;;;20.75;15.35;;;;;;;21.83;63.18;101483.94;5085021;28;20047;-55
2021/06/27 09:26:30;;;;;;;17.73;14.02;;;;;;;21.91;62.73;101485.06;5092233;28;20066;-51
2021/06/27 09:28:59;;;;;;;22.75;15.70;;;;;;;22.00;62.64;101485.88;5092288;28;20048;-53
2021/06/27 09:31:34;;;;;;;15.98;12.20;;;;;;;22.06;61.26;101476.25;5092327;28;20414;-54
2021/06/27 09:34:04;;;;;;;17.50;14.63;;;;;;;22.10;60.30;101468.91;5091910;28;20044;-49
2021/06/27 09:36:32;;;;;;;18.83;13.52;;;;;;;22.12;60.40;101474.91;5091301;28;20048;-50
2021/06/27 09:39:08;;;;;;;22.92;15.43;;;;;;;22.24;59.98;101467.91;5080442;28;20037;-50
2021/06/27 09:41:37;;;;;;;16.88;13.68;;;;;;;22.35;60.08;101465.59;5078687;28;20102;-49
2021/06/27 09:44:08;;;;;;;21.38;15.25;;;;;;;22.29;59.98;101456.59;5067588;28;20545;-50
2021/06/27 09:46:43;;;;;;;22.38;16.90;;;;;;;22.37;60.56;101461.31;5054139;28;20068;-49
2021/06/27 09:49:16;;;;;;;18.38;13.68;;;;;;;22.39;60.04;101459.00;5083192;28;20135;-49
2021/06/27 09:52:07;;;;;;;17.45;12.02;;;;;;;22.36;60.09;101450.53;5089719;28;20048;-56
2021/06/27 09:54:36;;;;;;;20.58;14.60;;;;;;;22.41;60.83;101450.34;5075497;28;20041;-49
2021/06/27 09:57:05;;;;;;;18.95;14.93;;;;;;;22.54;60.84;101452.91;5059665;28;20093;-50
2021/06/27 09:59:34;;;;;;;19.65;15.60;;;;;;;22.59;60.87;101454.69;5084025;28;20041;-49
2021/06/27 10:02:02;;;;;;;21.30;16.15;;;;;;;22.58;61.33;101446.69;5085998;28;20052;-50
2021/06/27 10:04:33;;;;;;;21.42;16.67;;;;;;;22.63;61.42;101447.28;5088391;28;20102;-48
2021/06/27 10:07:03;;;;;;;20.20;14.90;;;;;;;22.65;61.63;101438.63;4393507;28;9999787;-52
2021/06/27 10:09:41;;;;;;;21.20;14.73;;;;;;;22.78;60.71;101443.16;5087440;28;20286;-50
2021/06/27 10:12:12;;;;;;;17.90;13.90;;;;;;;22.82;59.73;101429.38;5082139;28;20052;-51
2021/06/27 10:14:49;;;;;;;17.63;12.80;;;;;;;22.85;60.44;101434.25;5068507;28;20379;-50
2021/06/27 10:17:23;;;;;;;20.30;16.27;;;;;;;23.04;59.39;101437.47;5080318;28;20071;-51
2021/06/27 10:19:54;;;;;;;20.45;17.05;;;;;;;23.07;59.44;101433.19;5080853;28;20041;-50
2021/06/27 10:22:26;;;;;;;21.10;16.70;;;;;;;23.11;58.84;101426.59;5079194;28;20407;-53
2021/06/27 10:24:54;;;;;;;19.40;14.77;;;;;;;23.10;58.81;101424.16;5084902;28;20555;-50
2021/06/27 10:27:24;;;;;;;22.40;15.27;;;;;;;23.10;58.90;101426.94;5087551;28;20090;-49
2021/06/27 10:29:51;;;;;;;19.77;15.80;;;;;;;23.14;58.27;101423.16;5082971;28;20076;-50
2021/06/27 10:32:20;;;;;;;18.08;13.73;;;;;;;23.20;57.74;101423.75;5069936;28;20759;-51
2021/06/27 10:34:48;;;;;;;25.65;15.75;;;;;;;23.31;57.07;101411.06;5087550;28;20040;-53
2021/06/27 10:37:46;;;;;;;35.72;23.35;;;;;;;23.35;57.17;101409.22;5069867;28;20510;-51
2021/06/27 10:40:19;;;;;;;25.02;17.17;;;;;;;23.51;57.14;101405.81;5084955;28;20119;-51
2021/06/27 10:42:49;;;;;;;18.00;12.93;;;;;;;23.55;56.83;101406.78;5087124;28;20048;-51
2021/06/27 10:45:22;;;;;;;55.90;30.70;;;;;;;23.50;56.44;101401.41;5092798;28;20056;-50
2021/06/27 10:47:50;;;;;;;182.45;87.13;;;;;;;23.43;56.46;101406.69;5092789;28;20633;-50
2021/06/27 10:50:19;;;;;;;88.03;46.03;;;;;;;23.41;55.87;101400.69;5067618;28;20052;-50
2021/06/27 10:52:55;;;;;;;26.17;17.55;;;;;;;23.41;56.12;101400.69;5087122;28;20068;-50
2021/06/27 10:55:38;;;;;;;21.40;14.57;;;;;;;23.58;55.92;101404.09;5092739;28;20040;-49
2021/06/27 10:58:09;;;;;;;35.33;20.05;;;;;;;23.61;55.72;101402.59;5093153;28;20498;-49
2021/06/27 11:00:53;;;;;;;16.52;12.45;;;;;;;23.59;56.58;101396.56;5093092;28;20071;-48
2021/06/27 11:03:33;;;;;;;18.95;13.07;;;;;;;23.65;55.95;101399.97;5079475;28;20449;-50
2021/06/27 11:06:24;;;;;;;18.38;13.75;;;;;;;23.64;55.28;101404.69;5091451;28;20593;-50
2021/06/27 11:09:08;;;;;;;19.30;13.30;;;;;;;23.58;54.77;101395.75;5074489;28;20079;-49
2021/06/27 11:11:53;;;;;;;17.17;11.30;;;;;;;23.59;55.00;101391.84;5092526;28;20198;-50
2021/06/27 11:14:21;;;;;;;16.55;12.27;;;;;;;23.69;55.51;101398.94;5092375;28;20036;-51
2021/06/27 11:17:00;;;;;;;17.85;12.82;;;;;;;23.76;54.92;101390.88;5092543;28;20065;-50
2021/06/27 11:19:32;;;;;;;29.45;18.33;;;;;;;23.78;55.49;101393.28;5091955;28;20112;-50